METAR AND TAF INFORMATION
METAR FOR LJLJ
ADDS - METARS form results

(1837 UTC 21 June 2021)
Data provider http://aviationweather.gov/metar/data/
 
METAR text: LJLJ 211830Z 25004KT 9999 FEW060 25/16 Q1009 NOSIG
Conditions at: LJLJ (LJUBLJANA/BRNIK , SI) observed 1830 UTC 21 June 2021
Temperature: 25.0°C (77°F)
Dewpoint: 16.0°C (61°F) [RH = 57%]
Pressure (altimeter): 29.79 inches Hg (1009.0 mb)
Winds: from the WSW (250 degrees) at 5 MPH (4 knots; 2.1 m/s)
Visibility: 6 or more miles (10+ km)
Ceiling: at least 12,000 feet AGL
Clouds: few clouds at 6000 feet AGL
Weather: no significant weather observed at this time

METAR text: LJLJ 211800Z 22004KT 9999 FEW060 27/14 Q1009 NOSIG
Conditions at: LJLJ (LJUBLJANA/BRNIK , SI) observed 1800 UTC 21 June 2021
Temperature: 27.0°C (81°F)
Dewpoint: 14.0°C (57°F) [RH = 45%]
Pressure (altimeter): 29.79 inches Hg (1009.0 mb)
Winds: from the SW (220 degrees) at 5 MPH (4 knots; 2.1 m/s)
Visibility: 6 or more miles (10+ km)
Ceiling: at least 12,000 feet AGL
Clouds: few clouds at 6000 feet AGL
Weather: no significant weather observed at this time

Forecast for: LJLJ (LJUBLJANA/BRNIK , SI)
Text: TAF LJLJ 211700Z 2118/2218 25010KT 9999 FEW060
Forecast period: 1800 UTC 21 June 2021 to 1800 UTC 22 June 2021
Forecast type: FROM: standard forecast or significant change
Winds: from the WSW (250 degrees) at 12 MPH (10 knots; 5.1 m/s)
Visibility: 6 or more miles (10+ km)
Ceiling: at least 12,000 feet AGL
Clouds: few clouds at 6000 feet AGL
Weather: no significant weather forecast for this period
Text: BECMG 2118/2120 VRB02KT
Forecast period: 1800 UTC 21 June 2021 to 1000 UTC 22 June 2021
Forecast type: BECOMING: Conditions expected to become as follows by 2000 UTC 21 June 2021
Winds: variable direction winds at 2 MPH (2 knots; 1.0 m/s)
Visibility: 6 or more miles (10+ km)
Ceiling: at least 12,000 feet AGL
Clouds: few clouds at 6000 feet AGL
Weather: no significant weather forecast for this period
Text: BECMG 2210/2212 25010KT
Forecast period: 1000 to 1800 UTC 22 June 2021
Forecast type: BECOMING: Conditions expected to become as follows by 1200 UTC 22 June 2021
Winds: from the WSW (250 degrees) at 12 MPH (10 knots; 5.1 m/s)
Visibility: 6 or more miles (10+ km)
Ceiling: at least 12,000 feet AGL
Clouds: few clouds at 6000 feet AGL
Weather: no significant weather forecast for this period

 AIRPORT MAP

 RUNWAY INFORMATION

 AIRPORT FREQUENCIES
Type A/D Name APP Frequency 135.275 MHZ
Type ATIS Name also on VO Frequency 128.175 MHZ
Type GND Name Frequency 121.625 MHZ
Type HANDLING & Name Frequency 131.4 MHZ
Type TWR Name TWR Frequency 118 MHZ

 AIRPORT NEAR NAVIGATION AIDS
Type VOR-DME Name Dolsko Frequency 112700 KHZ
Type NDB Name Dolsko Frequency 328 KHZ
Type NDB Name Ljubljana Frequency 296 KHZ



2018 Air Astana Virtual Airline